Time,TemperatureF,DewpointF,PressureIn,WindDirection,WindDirectionDegrees,WindSpeedMPH,WindSpeedGustMPH,Humidity,HourlyPrecipIn,Conditions,Clouds,dailyrainin,SoftwareType,DateUTC
2013-01-11 00:04:00,33.6,23.6,30.46,NNE,27,1.5,1.5,66,0.00,,CLR,0.00,VWS V14.01,2013-01-11 05:04:00,
2013-01-11 00:06:00,33.5,23.5,30.46,NNE,27,1.5,1.5,66,0.00,,CLR,0.00,VWS V14.01,2013-01-11 05:06:00,
2013-01-11 00:09:00,33.4,23.5,30.46,NNE,27,1.5,1.5,66,0.00,,CLR,0.00,VWS V14.01,2013-01-11 05:09:00,
2013-01-11 00:13:00,33.3,23.5,30.46,NNE,27,1.5,1.5,67,0.00,,CLR,0.00,VWS V14.01,2013-01-11 05:13:00,
2013-01-11 00:19:00,33.1,23.6,30.46,NNE,27,1.5,1.5,68,0.00,,CLR,0.00,VWS V14.01,2013-01-11 05:19:00,
2013-01-11 00:24:00,32.9,23.5,30.46,NNE,27,1.5,1.5,68,0.00,,CLR,0.00,VWS V14.01,2013-01-11 05:24:00,
2013-01-11 00:30:00,33.0,23.7,30.46,NNE,27,1.5,1.5,68,0.00,,CLR,0.00,VWS V14.01,2013-01-11 05:30:00,
2013-01-11 00:36:00,32.7,23.6,30.47,NNE,27,1.5,1.5,69,0.00,,CLR,0.00,VWS V14.01,2013-01-11 05:36:00,
2013-01-11 00:41:00,32.4,23.5,30.47,WSW,252,3.1,3.4,70,0.00,,CLR,0.00,VWS V14.01,2013-01-11 05:41:00,
2013-01-11 00:47:00,32.3,23.7,30.47,West,281,1.5,1.5,70,0.00,,CLR,0.00,VWS V14.01,2013-01-11 05:47:00,
2013-01-11 00:53:00,32.2,23.8,30.47,North,354,1.5,1.5,71,0.00,,CLR,0.00,VWS V14.01,2013-01-11 05:53:00,
2013-01-11 00:58:00,32.2,23.8,30.47,North,354,1.5,1.5,71,0.00,,CLR,0.00,VWS V14.01,2013-01-11 05:58:00,
2013-01-11 01:04:00,32.3,23.9,30.47,North,354,1.5,1.5,71,0.00,,CLR,0.00,VWS V14.01,2013-01-11 06:04:00,
2013-01-11 01:10:00,32.3,23.9,30.47,North,354,1.5,1.5,71,0.00,,CLR,0.00,VWS V14.01,2013-01-11 06:10:00,
2013-01-11 01:15:00,32.1,23.8,30.47,North,354,1.5,1.5,71,0.00,,CLR,0.00,VWS V14.01,2013-01-11 06:15:00,
2013-01-11 01:21:00,32.1,23.9,30.47,North,354,1.5,1.5,72,0.00,,CLR,0.00,VWS V14.01,2013-01-11 06:21:00,
2013-01-11 01:27:00,31.9,23.9,30.47,North,354,1.5,1.5,72,0.00,,CLR,0.00,VWS V14.01,2013-01-11 06:27:00,
2013-01-11 01:32:00,31.6,23.7,30.47,North,354,1.5,1.5,72,0.00,,CLR,0.00,VWS V14.01,2013-01-11 06:32:00,
2013-01-11 01:38:00,31.4,23.7,30.46,North,354,1.5,1.5,73,0.00,,CLR,0.00,VWS V14.01,2013-01-11 06:38:00,
2013-01-11 01:44:00,31.3,24.0,30.46,West,259,3.1,3.2,74,0.00,,CLR,0.00,VWS V14.01,2013-01-11 06:44:00,
2013-01-11 01:49:00,31.3,24.1,30.46,West,274,1.5,1.5,74,0.00,,CLR,0.00,VWS V14.01,2013-01-11 06:49:00,
2013-01-11 01:55:00,31.2,24.2,30.46,West,274,1.5,1.5,75,0.00,,CLR,0.00,VWS V14.01,2013-01-11 06:55:00,
2013-01-11 02:01:00,31.1,24.3,30.46,West,274,1.5,1.5,76,0.00,,CLR,0.00,VWS V14.01,2013-01-11 07:01:00,
2013-01-11 02:06:00,31.0,24.3,30.46,West,274,1.5,1.5,76,0.00,,CLR,0.00,VWS V14.01,2013-01-11 07:06:00,
2013-01-11 02:12:00,31.0,24.4,30.46,West,274,1.5,1.5,76,0.00,,CLR,0.00,VWS V14.01,2013-01-11 07:12:00,
2013-01-11 02:17:00,31.0,24.5,30.46,West,274,1.5,1.5,76,0.00,,CLR,0.00,VWS V14.01,2013-01-11 07:17:00,
2013-01-11 02:22:00,31.0,24.5,30.46,West,274,1.5,1.5,77,0.00,,CLR,0.00,VWS V14.01,2013-01-11 07:22:00,
2013-01-11 02:27:00,30.9,24.5,30.46,West,274,1.5,1.5,77,0.00,,CLR,0.00,VWS V14.01,2013-01-11 07:27:00,
2013-01-11 02:33:00,30.9,24.6,30.47,SSW,195,1.5,1.5,77,0.00,,CLR,0.00,VWS V14.01,2013-01-11 07:33:00,
2013-01-11 02:38:00,31.0,24.7,30.46,SSW,195,1.5,1.5,77,0.00,,CLR,0.00,VWS V14.01,2013-01-11 07:38:00,
2013-01-11 02:44:00,30.9,24.7,30.45,SSW,195,1.5,1.5,78,0.00,,CLR,0.00,VWS V14.01,2013-01-11 07:44:00,
2013-01-11 02:49:00,30.9,24.8,30.46,SSW,195,1.5,1.5,78,0.00,,CLR,0.00,VWS V14.01,2013-01-11 07:49:00,
2013-01-11 02:54:00,30.8,24.7,30.46,West,277,2.2,3.1,78,0.00,,CLR,0.00,VWS V14.01,2013-01-11 07:54:00,
2013-01-11 02:59:00,30.7,24.7,30.46,WSW,242,1.5,1.5,78,0.00,,CLR,0.00,VWS V14.01,2013-01-11 07:59:00,
2013-01-11 03:04:00,30.6,24.7,30.46,WSW,242,1.5,1.5,78,0.00,,CLR,0.00,VWS V14.01,2013-01-11 08:04:00,
2013-01-11 03:09:00,30.5,24.6,30.46,WSW,242,1.5,1.5,79,0.00,,CLR,0.00,VWS V14.01,2013-01-11 08:09:00,
2013-01-11 03:14:00,30.6,24.8,30.46,WSW,242,1.5,1.5,79,0.00,,CLR,0.00,VWS V14.01,2013-01-11 08:14:00,
2013-01-11 03:20:00,30.6,24.8,30.46,WSW,242,1.5,1.5,79,0.00,,CLR,0.00,VWS V14.01,2013-01-11 08:20:00,
2013-01-11 03:25:00,30.4,24.7,30.46,WSW,242,1.5,1.5,79,0.00,,CLR,0.00,VWS V14.01,2013-01-11 08:25:00,
2013-01-11 03:31:00,30.4,24.8,30.45,WSW,242,1.5,1.5,79,0.00,,CLR,0.00,VWS V14.01,2013-01-11 08:31:00,
2013-01-11 03:36:00,30.4,24.9,30.44,WSW,242,1.5,1.5,80,0.00,,CLR,0.00,VWS V14.01,2013-01-11 08:36:00,
2013-01-11 03:41:00,30.4,24.9,30.44,WSW,242,1.5,1.5,80,0.00,,CLR,0.00,VWS V14.01,2013-01-11 08:41:00,
2013-01-11 03:46:00,30.3,24.8,30.44,WSW,242,1.5,1.5,80,0.00,,CLR,0.00,VWS V14.01,2013-01-11 08:46:00,
2013-01-11 03:52:00,30.2,24.8,30.44,WSW,242,1.5,1.5,80,0.00,,CLR,0.00,VWS V14.01,2013-01-11 08:52:00,
2013-01-11 03:57:00,30.1,24.9,30.44,WSW,257,3.4,4.3,81,0.00,,CLR,0.00,VWS V14.01,2013-01-11 08:57:00,
2013-01-11 04:02:00,30.1,25.0,30.44,West,280,1.5,1.5,81,0.00,,CLR,0.00,VWS V14.01,2013-01-11 09:02:00,
2013-01-11 04:07:00,30.1,25.0,30.44,West,262,3.2,4.2,81,0.00,,CLR,0.00,VWS V14.01,2013-01-11 09:07:00,
2013-01-11 04:12:00,30.0,25.1,30.44,SW,221,1.5,1.5,82,0.00,,CLR,0.00,VWS V14.01,2013-01-11 09:12:00,
2013-01-11 04:17:00,30.0,25.2,30.44,SW,221,1.5,1.5,82,0.00,,CLR,0.00,VWS V14.01,2013-01-11 09:17:00,
2013-01-11 04:22:00,30.2,25.5,30.44,SW,221,1.5,1.5,82,0.00,,CLR,0.00,VWS V14.01,2013-01-11 09:22:00,
2013-01-11 04:27:00,30.3,25.6,30.43,SW,221,1.5,1.5,82,0.00,,CLR,0.00,VWS V14.01,2013-01-11 09:27:00,
2013-01-11 04:32:00,30.3,25.6,30.43,SW,221,1.5,1.5,83,0.00,,CLR,0.00,VWS V14.01,2013-01-11 09:32:00,
2013-01-11 04:37:00,30.2,25.6,30.44,SW,221,1.5,1.5,83,0.00,,CLR,0.00,VWS V14.01,2013-01-11 09:37:00,
2013-01-11 04:42:00,30.2,25.6,30.43,SW,221,1.5,1.5,83,0.00,,CLR,0.00,VWS V14.01,2013-01-11 09:42:00,
2013-01-11 04:47:00,30.2,25.6,30.43,SW,221,1.5,1.5,83,0.00,,CLR,0.00,VWS V14.01,2013-01-11 09:47:00,
2013-01-11 04:52:00,30.0,25.4,30.43,SW,221,1.5,1.5,83,0.00,,CLR,0.00,VWS V14.01,2013-01-11 09:52:00,
2013-01-11 04:57:00,29.9,25.4,30.43,SW,221,1.5,1.5,83,0.00,,CLR,0.00,VWS V14.01,2013-01-11 09:57:00,
2013-01-11 05:02:00,30.0,25.6,30.43,SW,221,1.5,1.5,83,0.00,,CLR,0.00,VWS V14.01,2013-01-11 10:02:00,
2013-01-11 05:07:00,29.9,25.6,30.43,West,260,1.5,2.7,84,0.00,,CLR,0.00,VWS V14.01,2013-01-11 10:07:00,
2013-01-11 05:12:00,29.8,25.5,30.43,West,260,1.5,1.5,84,0.00,,CLR,0.00,VWS V14.01,2013-01-11 10:12:00,
2013-01-11 05:17:00,29.8,25.5,30.44,West,260,1.5,1.5,84,0.00,,CLR,0.00,VWS V14.01,2013-01-11 10:17:00,
2013-01-11 05:22:00,29.7,25.4,30.43,West,260,1.5,1.5,84,0.00,,CLR,0.00,VWS V14.01,2013-01-11 10:22:00,
2013-01-11 05:28:00,29.5,25.0,30.43,West,260,1.5,1.5,83,0.00,,CLR,0.00,VWS V14.01,2013-01-11 10:28:00,
2013-01-11 05:33:00,29.5,25.4,30.44,West,260,1.5,1.5,84,0.00,,CLR,0.00,VWS V14.01,2013-01-11 10:33:00,
2013-01-11 05:38:00,29.4,25.4,30.44,WSW,248,1.5,1.5,85,0.00,,CLR,0.00,VWS V14.01,2013-01-11 10:38:00,
2013-01-11 05:43:00,29.5,25.5,30.44,WSW,248,1.5,1.5,85,0.00,,CLR,0.00,VWS V14.01,2013-01-11 10:43:00,
2013-01-11 05:48:00,29.6,25.6,30.44,WSW,248,1.5,1.5,85,0.00,,CLR,0.00,VWS V14.01,2013-01-11 10:48:00,
2013-01-11 05:53:00,29.7,25.8,30.44,WSW,248,1.5,1.5,85,0.00,,CLR,0.00,VWS V14.01,2013-01-11 10:53:00,
2013-01-11 05:58:00,29.6,25.6,30.44,WSW,248,1.5,1.5,85,0.00,,CLR,0.00,VWS V14.01,2013-01-11 10:58:00,
2013-01-11 06:03:00,29.7,25.7,30.44,WSW,248,1.5,1.5,85,0.00,,SCT200,0.00,VWS V14.01,2013-01-11 11:03:00,
2013-01-11 06:08:00,29.7,25.8,30.45,WSW,248,1.5,1.5,85,0.00,,SCT200,0.00,VWS V14.01,2013-01-11 11:08:00,
2013-01-11 06:13:00,29.7,25.7,30.45,WSW,248,1.5,1.5,85,0.00,,SCT200,0.00,VWS V14.01,2013-01-11 11:13:00,
2013-01-11 06:18:00,29.6,25.6,30.45,WSW,248,1.5,1.5,85,0.00,,SCT200,0.00,VWS V14.01,2013-01-11 11:18:00,
2013-01-11 06:23:00,29.7,25.8,30.45,WSW,248,1.5,1.5,85,0.00,,SCT200,0.00,VWS V14.01,2013-01-11 11:23:00,
2013-01-11 06:28:00,29.7,25.7,30.45,WSW,248,1.5,1.5,85,0.00,,SCT200,0.00,VWS V14.01,2013-01-11 11:28:00,
2013-01-11 06:33:00,29.7,25.7,30.45,WSW,248,1.5,1.5,85,0.00,,SCT200,0.00,VWS V14.01,2013-01-11 11:33:00,
2013-01-11 06:38:00,29.8,25.9,30.45,WSW,248,1.5,1.5,85,0.00,,SCT200,0.00,VWS V14.01,2013-01-11 11:38:00,
2013-01-11 06:43:00,29.8,25.9,30.45,WSW,248,1.5,1.5,85,0.00,,SCT200,0.00,VWS V14.01,2013-01-11 11:43:00,
2013-01-11 06:48:00,29.9,26.0,30.45,WSW,248,1.5,1.5,85,0.00,,SCT200,0.00,VWS V14.01,2013-01-11 11:48:00,
2013-01-11 06:53:00,29.9,26.1,30.46,WSW,248,1.5,1.5,85,0.00,,SCT200,0.00,VWS V14.01,2013-01-11 11:53:00,
2013-01-11 06:58:00,30.0,26.2,30.46,WSW,248,1.5,1.5,86,0.00,,SCT200,0.00,VWS V14.01,2013-01-11 11:58:00,
2013-01-11 07:03:00,30.1,26.3,30.45,WSW,248,1.5,1.5,86,0.00,,BKN250,0.00,VWS V14.01,2013-01-11 12:03:00,
2013-01-11 07:08:00,30.2,26.5,30.46,WSW,248,1.5,1.5,86,0.00,,BKN250,0.00,VWS V14.01,2013-01-11 12:08:00,
2013-01-11 07:13:00,30.3,26.6,30.46,WSW,248,1.5,1.5,86,0.00,,BKN250,0.00,VWS V14.01,2013-01-11 12:13:00,
2013-01-11 07:18:00,30.3,26.7,30.46,WSW,248,1.5,1.5,86,0.00,,BKN250,0.00,VWS V14.01,2013-01-11 12:18:00,
2013-01-11 07:23:00,30.4,26.9,30.46,WSW,248,1.5,1.5,87,0.00,,BKN250,0.00,VWS V14.01,2013-01-11 12:23:00,
2013-01-11 07:28:00,30.4,27.0,30.46,WSW,248,1.5,1.5,87,0.00,,BKN250,0.00,VWS V14.01,2013-01-11 12:28:00,
2013-01-11 07:33:00,30.6,27.3,30.46,WSW,248,1.5,1.5,87,0.00,,BKN250,0.00,VWS V14.01,2013-01-11 12:33:00,
2013-01-11 07:38:00,30.9,27.6,30.46,WSW,248,1.5,1.5,87,0.00,,BKN250,0.00,VWS V14.01,2013-01-11 12:38:00,
2013-01-11 07:43:00,31.0,27.6,30.46,WSW,248,1.5,1.5,87,0.00,,BKN250,0.00,VWS V14.01,2013-01-11 12:43:00,
2013-01-11 07:48:00,31.0,27.6,30.46,WSW,248,1.5,1.5,87,0.00,,BKN250,0.00,VWS V14.01,2013-01-11 12:48:00,
2013-01-11 07:53:00,31.3,27.9,30.46,WSW,248,1.5,1.5,87,0.00,,BKN250,0.00,VWS V14.01,2013-01-11 12:53:00,
2013-01-11 07:58:00,31.5,28.0,30.46,WSW,248,1.5,1.5,87,0.00,,BKN250,0.00,VWS V14.01,2013-01-11 12:58:00,
2013-01-11 08:03:00,31.6,28.0,30.46,WSW,248,1.5,1.5,86,0.00,,OVC250,0.00,VWS V14.01,2013-01-11 13:03:00,
2013-01-11 08:08:00,31.7,28.1,30.46,WSW,248,1.5,1.5,86,0.00,,OVC250,0.00,VWS V14.01,2013-01-11 13:08:00,
2013-01-11 08:13:00,31.9,28.3,30.46,WSW,248,1.5,1.5,86,0.00,,OVC250,0.00,VWS V14.01,2013-01-11 13:13:00,
2013-01-11 08:18:00,32.1,28.4,30.46,WSW,248,1.5,1.5,86,0.00,,OVC250,0.00,VWS V14.01,2013-01-11 13:18:00,
2013-01-11 08:23:00,32.4,28.7,30.46,WSW,248,1.5,1.5,86,0.00,,OVC250,0.00,VWS V14.01,2013-01-11 13:23:00,
2013-01-11 08:29:00,32.6,28.8,30.46,West,278,2.4,2.4,86,0.00,,OVC250,0.00,VWS V14.01,2013-01-11 13:29:00,
2013-01-11 08:34:00,32.9,29.1,30.46,West,273,1.5,1.5,86,0.00,,OVC250,0.00,VWS V14.01,2013-01-11 13:34:00,
2013-01-11 08:39:00,33.2,29.4,30.46,West,273,1.5,1.5,86,0.00,,OVC250,0.00,VWS V14.01,2013-01-11 13:39:00,
2013-01-11 08:44:00,33.4,29.6,30.46,West,273,1.5,1.5,86,0.00,,OVC250,0.00,VWS V14.01,2013-01-11 13:44:00,
2013-01-11 08:49:00,33.7,29.8,30.46,West,273,1.5,1.5,86,0.00,,OVC250,0.00,VWS V14.01,2013-01-11 13:49:00,
2013-01-11 08:54:00,34.1,30.2,30.46,West,273,1.5,1.5,85,0.00,,OVC250,0.00,VWS V14.01,2013-01-11 13:54:00,
2013-01-11 08:59:00,34.5,30.5,30.46,West,273,1.5,1.5,85,0.00,,OVC250,0.00,VWS V14.01,2013-01-11 13:59:00,
2013-01-11 09:04:00,34.8,30.6,30.45,West,273,1.5,1.5,84,0.00,,BKN250,0.00,VWS V14.01,2013-01-11 14:04:00,
2013-01-11 09:09:00,35.2,30.8,30.45,West,273,1.5,1.5,84,0.00,,BKN250,0.00,VWS V14.01,2013-01-11 14:09:00,
2013-01-11 09:14:00,35.6,31.1,30.45,West,273,1.5,1.5,84,0.00,,BKN250,0.00,VWS V14.01,2013-01-11 14:14:00,
2013-01-11 09:19:00,35.9,31.2,30.45,West,273,1.5,1.5,83,0.00,,BKN250,0.00,VWS V14.01,2013-01-11 14:19:00,
2013-01-11 09:24:00,36.4,31.6,30.45,West,273,1.5,1.5,83,0.00,,BKN250,0.00,VWS V14.01,2013-01-11 14:24:00,
2013-01-11 09:29:00,36.8,31.9,30.45,West,273,1.5,1.5,82,0.00,,BKN250,0.00,VWS V14.01,2013-01-11 14:29:00,
2013-01-11 09:34:00,37.2,32.0,30.45,ENE,66,1.5,1.5,81,0.00,,BKN250,0.00,VWS V14.01,2013-01-11 14:34:00,
2013-01-11 09:39:00,37.7,32.6,30.45,ENE,66,1.5,1.5,82,0.00,,BKN250,0.00,VWS V14.01,2013-01-11 14:39:00,
2013-01-11 09:45:00,38.4,33.1,30.45,SSW,200,1.5,1.5,81,0.00,,BKN250,0.00,VWS V14.01,2013-01-11 14:45:00,
2013-01-11 09:50:00,38.8,33.0,30.45,SSW,200,1.5,1.5,80,0.00,,BKN250,0.00,VWS V14.01,2013-01-11 14:50:00,
2013-01-11 09:56:00,39.5,33.0,30.45,ESE,104,4.5,7.3,77,0.00,,BKN250,0.00,VWS V14.01,2013-01-11 14:56:00,
2013-01-11 10:01:00,40.0,32.9,30.44,East,86,4.7,6.0,76,0.00,,BKN250,0.00,VWS V14.01,2013-01-11 15:01:00,
2013-01-11 10:06:00,40.2,32.7,30.44,SE,134,2.2,6.7,74,0.00,,BKN250,0.00,VWS V14.01,2013-01-11 15:06:00,
2013-01-11 10:11:00,40.6,32.7,30.44,South,177,5.0,6.8,73,0.00,,BKN250,0.00,VWS V14.01,2013-01-11 15:11:00,
2013-01-11 10:16:00,40.9,32.7,30.44,East,91,1.5,1.5,72,0.00,,BKN250,0.00,VWS V14.01,2013-01-11 15:16:00,
2013-01-11 10:21:00,41.1,32.5,30.44,SSE,150,5.8,7.4,71,0.00,,BKN250,0.00,VWS V14.01,2013-01-11 15:21:00,
2013-01-11 10:26:00,41.5,32.7,30.44,NNE,31,1.5,2.2,71,0.00,,BKN250,0.00,VWS V14.01,2013-01-11 15:26:00,
2013-01-11 10:31:00,41.7,32.5,30.44,ESE,121,5.4,5.5,70,0.00,,BKN250,0.00,VWS V14.01,2013-01-11 15:31:00,
2013-01-11 10:36:00,41.9,32.3,30.44,NE,41,3.2,5.4,69,0.00,,BKN250,0.00,VWS V14.01,2013-01-11 15:36:00,
2013-01-11 10:41:00,41.9,32.1,30.44,NE,46,1.5,1.5,68,0.00,,BKN250,0.00,VWS V14.01,2013-01-11 15:41:00,
2013-01-11 10:46:00,42.0,31.9,30.43,SE,143,7.5,8.6,67,0.00,,BKN250,0.00,VWS V14.01,2013-01-11 15:46:00,
2013-01-11 10:51:00,42.1,32.1,30.42,ESE,110,1.5,2.2,67,0.00,,BKN250,0.00,VWS V14.01,2013-01-11 15:51:00,
2013-01-11 10:56:00,42.3,32.0,30.42,ESE,122,6.0,8.8,67,0.00,,BKN250,0.00,VWS V14.01,2013-01-11 15:56:00,
2013-01-11 11:01:00,42.3,32.0,30.41,SE,127,1.5,1.5,67,0.00,,BKN250,0.00,VWS V14.01,2013-01-11 16:01:00,
2013-01-11 11:06:00,42.4,32.1,30.41,SE,125,2.2,2.6,67,0.00,,BKN250,0.00,VWS V14.01,2013-01-11 16:06:00,
2013-01-11 11:11:00,42.4,32.1,30.40,SSE,158,4.0,4.2,67,0.00,,BKN250,0.00,VWS V14.01,2013-01-11 16:11:00,
2013-01-11 11:16:00,42.5,32.0,30.39,SE,135,4.9,7.8,66,0.00,,BKN250,0.00,VWS V14.01,2013-01-11 16:16:00,
2013-01-11 11:21:00,42.6,32.2,30.40,ESE,118,1.5,1.5,66,0.00,,BKN250,0.00,VWS V14.01,2013-01-11 16:21:00,
2013-01-11 11:26:00,42.9,32.4,30.39,SSE,165,2.5,2.7,66,0.00,,BKN250,0.00,VWS V14.01,2013-01-11 16:26:00,
2013-01-11 11:31:00,43.3,32.5,30.39,SSE,152,3.6,4.6,65,0.00,,BKN250,0.00,VWS V14.01,2013-01-11 16:31:00,
2013-01-11 11:36:00,43.5,32.4,30.39,SSW,195,1.5,6.2,65,0.00,,BKN250,0.00,VWS V14.01,2013-01-11 16:36:00,
2013-01-11 11:41:00,43.5,32.2,30.38,SW,228,1.5,3.1,64,0.00,,BKN250,0.00,VWS V14.01,2013-01-11 16:41:00,
2013-01-11 11:46:00,43.6,32.4,30.38,SSE,150,6.0,6.3,64,0.00,,BKN250,0.00,VWS V14.01,2013-01-11 16:46:00,
2013-01-11 11:51:00,43.6,32.2,30.38,SE,127,2.1,4.6,64,0.00,,BKN250,0.00,VWS V14.01,2013-01-11 16:51:00,
2013-01-11 11:56:00,43.6,32.2,30.37,SW,236,2.2,4.7,64,0.00,,BKN250,0.00,VWS V14.01,2013-01-11 16:56:00,
2013-01-11 12:01:00,43.8,32.2,30.38,SE,141,3.4,6.5,63,0.00,,OVC170,0.00,VWS V14.01,2013-01-11 17:01:00,
2013-01-11 12:06:00,43.8,32.0,30.37,SSE,158,3.0,4.2,63,0.00,,OVC170,0.00,VWS V14.01,2013-01-11 17:06:00,
2013-01-11 12:11:00,43.8,32.1,30.37,SE,146,3.4,5.7,63,0.00,,OVC170,0.00,VWS V14.01,2013-01-11 17:11:00,
2013-01-11 12:16:00,43.9,32.2,30.37,SE,131,4.4,5.0,63,0.00,,OVC170,0.00,VWS V14.01,2013-01-11 17:16:00,
2013-01-11 12:21:00,43.9,32.2,30.37,SSE,166,3.4,5.0,63,0.00,,OVC170,0.00,VWS V14.01,2013-01-11 17:21:00,
2013-01-11 12:26:00,44.0,32.4,30.36,ESE,114,1.5,3.6,64,0.00,,OVC170,0.00,VWS V14.01,2013-01-11 17:26:00,
2013-01-11 12:31:00,43.9,32.2,30.36,SW,232,2.4,3.1,63,0.00,,OVC170,0.00,VWS V14.01,2013-01-11 17:31:00,
2013-01-11 12:36:00,43.8,32.1,30.36,SW,231,3.6,4.5,63,0.00,,OVC170,0.00,VWS V14.01,2013-01-11 17:36:00,
2013-01-11 12:41:00,43.7,31.9,30.36,WSW,257,3.2,3.2,63,0.00,,OVC170,0.00,VWS V14.01,2013-01-11 17:41:00,
2013-01-11 12:46:00,43.6,31.8,30.36,SE,128,1.5,3.9,63,0.00,,OVC170,0.00,VWS V14.01,2013-01-11 17:46:00,
2013-01-11 12:51:00,43.7,32.0,30.36,SSE,160,4.2,6.2,63,0.00,,OVC170,0.00,VWS V14.01,2013-01-11 17:51:00,
2013-01-11 12:56:00,43.7,32.0,30.36,West,266,2.9,3.5,63,0.00,,OVC170,0.00,VWS V14.01,2013-01-11 17:56:00,
2013-01-11 13:01:00,43.6,31.5,30.36,SW,225,1.5,2.2,62,0.00,,OVC200,0.00,VWS V14.01,2013-01-11 18:01:00,
2013-01-11 13:06:00,43.7,31.7,30.36,SSW,201,4.1,4.5,62,0.00,,OVC200,0.00,VWS V14.01,2013-01-11 18:06:00,
2013-01-11 13:11:00,43.8,31.9,30.36,SSW,200,3.7,3.7,63,0.00,,OVC200,0.00,VWS V14.01,2013-01-11 18:11:00,
2013-01-11 13:16:00,43.7,31.8,30.36,SW,225,1.5,1.5,63,0.00,,OVC200,0.00,VWS V14.01,2013-01-11 18:16:00,
2013-01-11 13:21:00,43.9,32.1,30.36,ESE,110,2.2,2.2,63,0.00,,OVC200,0.00,VWS V14.01,2013-01-11 18:21:00,
2013-01-11 13:26:00,44.0,32.0,30.36,SE,131,3.7,4.7,62,0.00,,OVC200,0.00,VWS V14.01,2013-01-11 18:26:00,
2013-01-11 13:31:00,44.1,32.1,30.35,South,187,3.2,3.2,62,0.00,,OVC200,0.00,VWS V14.01,2013-01-11 18:31:00,
2013-01-11 13:36:00,44.1,32.2,30.35,SE,138,1.5,1.5,63,0.00,,OVC200,0.00,VWS V14.01,2013-01-11 18:36:00,
2013-01-11 13:41:00,44.0,32.1,30.35,SE,142,3.2,4.5,63,0.00,,OVC200,0.00,VWS V14.01,2013-01-11 18:41:00,
2013-01-11 13:47:00,43.8,32.0,30.34,SE,146,4.0,4.4,63,0.00,,OVC200,0.00,VWS V14.01,2013-01-11 18:47:00,
2013-01-11 13:52:00,43.6,32.0,30.35,SE,127,1.5,2.2,63,0.00,,OVC200,0.00,VWS V14.01,2013-01-11 18:52:00,
2013-01-11 13:57:00,43.4,31.9,30.34,SSW,194,1.5,1.5,64,0.00,,OVC200,0.00,VWS V14.01,2013-01-11 18:57:00,
2013-01-11 14:02:00,43.3,32.0,30.33,SE,135,1.5,4.4,64,0.00,,OVC140,0.00,VWS V14.01,2013-01-11 19:02:00,
2013-01-11 14:07:00,43.1,32.1,30.33,SE,127,1.5,4.5,65,0.00,,OVC140,0.00,VWS V14.01,2013-01-11 19:07:00,
2013-01-11 14:12:00,43.2,32.4,30.33,SE,127,1.5,1.5,65,0.00,,OVC140,0.00,VWS V14.01,2013-01-11 19:12:00,
2013-01-11 14:17:00,43.2,32.5,30.33,SSE,152,1.5,1.5,66,0.00,,OVC140,0.00,VWS V14.01,2013-01-11 19:17:00,
2013-01-11 14:22:00,43.2,32.4,30.33,SE,127,2.1,4.0,66,0.00,,OVC140,0.00,VWS V14.01,2013-01-11 19:22:00,
2013-01-11 14:27:00,43.0,32.3,30.33,ENE,66,1.5,1.5,66,0.00,,OVC140,0.00,VWS V14.01,2013-01-11 19:27:00,
2013-01-11 14:32:00,42.8,32.3,30.33,SSE,158,1.5,1.5,66,0.00,,OVC140,0.00,VWS V14.01,2013-01-11 19:32:00,
2013-01-11 14:37:00,42.7,32.3,30.33,SSE,158,1.5,1.5,66,0.00,,OVC140,0.00,VWS V14.01,2013-01-11 19:37:00,
2013-01-11 14:42:00,42.7,32.5,30.33,SSW,198,2.9,2.9,67,0.00,,OVC140,0.00,VWS V14.01,2013-01-11 19:42:00,
2013-01-11 14:47:00,42.5,32.3,30.33,South,181,1.5,1.5,67,0.00,,OVC140,0.00,VWS V14.01,2013-01-11 19:47:00,
2013-01-11 14:52:00,42.4,32.2,30.33,South,181,1.5,1.5,67,0.00,,OVC140,0.00,VWS V14.01,2013-01-11 19:52:00,
2013-01-11 14:57:00,42.4,32.5,30.33,South,181,1.5,1.5,68,0.00,,OVC140,0.00,VWS V14.01,2013-01-11 19:57:00,
2013-01-11 15:02:00,42.3,32.5,30.33,South,181,1.5,1.5,68,0.00,,OVC110,0.00,VWS V14.01,2013-01-11 20:02:00,
2013-01-11 15:07:00,42.3,32.5,30.33,South,181,1.5,1.5,68,0.00,,OVC110,0.00,VWS V14.01,2013-01-11 20:07:00,
2013-01-11 15:12:00,42.3,32.7,30.33,South,181,1.5,1.5,69,0.00,,OVC110,0.00,VWS V14.01,2013-01-11 20:12:00,
2013-01-11 15:17:00,42.2,32.7,30.33,South,181,1.5,1.5,69,0.00,,OVC110,0.00,VWS V14.01,2013-01-11 20:17:00,
2013-01-11 15:22:00,42.3,32.9,30.33,South,181,1.5,1.5,69,0.00,,OVC110,0.00,VWS V14.01,2013-01-11 20:22:00,
2013-01-11 15:27:00,42.2,32.8,30.33,SSW,202,1.5,1.5,69,0.00,,OVC110,0.00,VWS V14.01,2013-01-11 20:27:00,
2013-01-11 15:33:00,42.0,32.8,30.32,SE,141,1.5,1.5,70,0.00,,OVC110,0.00,VWS V14.01,2013-01-11 20:33:00,
2013-01-11 15:38:00,41.9,32.4,30.31,SE,141,1.5,1.5,69,0.00,,OVC110,0.00,VWS V14.01,2013-01-11 20:38:00,
2013-01-11 15:43:00,41.8,32.8,30.32,SE,141,1.5,1.5,70,0.00,,OVC110,0.00,VWS V14.01,2013-01-11 20:43:00,
2013-01-11 15:48:00,41.8,32.8,30.31,SE,145,1.5,2.5,70,0.00,,OVC110,0.00,VWS V14.01,2013-01-11 20:48:00,
2013-01-11 15:53:00,41.7,33.0,30.31,SE,127,1.5,1.5,71,0.00,,OVC110,0.00,VWS V14.01,2013-01-11 20:53:00,
2013-01-11 15:58:00,41.4,32.7,30.31,SSE,163,1.5,2.2,71,0.00,,OVC110,0.00,VWS V14.01,2013-01-11 20:58:00,
2013-01-11 16:03:00,41.4,33.0,30.31,SE,145,1.5,1.5,72,0.00,,OVC160,0.00,VWS V14.01,2013-01-11 21:03:00,
2013-01-11 16:08:00,41.3,32.8,30.29,ESE,114,1.5,2.9,72,0.00,,OVC160,0.00,VWS V14.01,2013-01-11 21:08:00,
2013-01-11 16:13:00,41.1,32.9,30.30,ESE,114,1.5,1.5,72,0.00,,OVC160,0.00,VWS V14.01,2013-01-11 21:13:00,
2013-01-11 16:18:00,41.2,33.0,30.30,ESE,114,1.5,1.5,72,0.00,,OVC160,0.00,VWS V14.01,2013-01-11 21:18:00,
2013-01-11 16:23:00,41.0,33.0,30.30,ESE,114,1.5,1.5,73,0.00,,OVC160,0.00,VWS V14.01,2013-01-11 21:23:00,
2013-01-11 16:28:00,40.9,32.6,30.30,ESE,114,1.5,1.5,72,0.00,,OVC160,0.00,VWS V14.01,2013-01-11 21:28:00,
2013-01-11 16:33:00,40.8,33.2,30.30,SE,141,1.5,1.5,74,0.00,,OVC160,0.00,VWS V14.01,2013-01-11 21:33:00,
2013-01-11 16:39:00,40.8,33.3,30.30,SE,141,1.5,1.5,74,0.00,,OVC160,0.00,VWS V14.01,2013-01-11 21:39:00,
2013-01-11 16:44:00,40.8,33.5,30.29,SE,141,1.5,1.5,75,0.00,,OVC160,0.00,VWS V14.01,2013-01-11 21:44:00,
2013-01-11 16:49:00,40.7,33.5,30.29,SE,141,1.5,1.5,75,0.00,,OVC160,0.00,VWS V14.01,2013-01-11 21:49:00,
2013-01-11 16:54:00,40.7,33.7,30.29,SE,141,1.5,1.5,76,0.00,,OVC160,0.00,VWS V14.01,2013-01-11 21:54:00,
2013-01-11 16:59:00,40.6,33.7,30.29,South,184,1.5,1.5,76,0.00,,OVC160,0.00,VWS V14.01,2013-01-11 21:59:00,
2013-01-11 17:04:00,40.5,33.8,30.29,South,184,1.5,1.5,77,0.00,,OVC100,0.00,VWS V14.01,2013-01-11 22:04:00,
2013-01-11 17:09:00,40.7,34.1,30.29,SSW,207,4.1,5.6,77,0.00,,OVC100,0.00,VWS V14.01,2013-01-11 22:09:00,
2013-01-11 17:14:00,40.5,34.0,30.28,SSW,198,1.5,1.5,77,0.00,,OVC100,0.00,VWS V14.01,2013-01-11 22:14:00,
2013-01-11 17:19:00,40.4,34.1,30.28,South,174,1.5,1.5,78,0.00,,OVC100,0.00,VWS V14.01,2013-01-11 22:19:00,
2013-01-11 17:24:00,40.4,34.2,30.29,South,174,1.5,1.5,78,0.00,,OVC100,0.00,VWS V14.01,2013-01-11 22:24:00,
2013-01-11 17:29:00,40.4,34.2,30.28,South,176,1.5,1.5,78,0.00,,OVC100,0.00,VWS V14.01,2013-01-11 22:29:00,
2013-01-11 17:35:00,40.4,34.3,30.28,SSE,163,1.5,1.5,79,0.00,,OVC100,0.00,VWS V14.01,2013-01-11 22:35:00,
2013-01-11 17:41:00,40.4,34.3,30.28,SSE,162,2.2,3.7,79,0.00,,OVC100,0.00,VWS V14.01,2013-01-11 22:41:00,
2013-01-11 17:46:00,40.3,34.3,30.28,SE,146,1.5,2.2,79,0.00,,OVC100,0.00,VWS V14.01,2013-01-11 22:46:00,
2013-01-11 17:51:00,40.3,34.3,30.28,SSW,207,1.5,2.2,79,0.00,,OVC100,0.00,VWS V14.01,2013-01-11 22:51:00,
2013-01-11 17:56:00,40.3,34.4,30.28,WSW,253,2.9,4.2,79,0.00,,OVC100,0.00,VWS V14.01,2013-01-11 22:56:00,
2013-01-11 18:01:00,40.2,34.3,30.28,South,174,1.5,2.6,79,0.00,,-RA,0.00,VWS V14.01,2013-01-11 23:01:00,
2013-01-11 18:06:00,40.3,34.6,30.28,South,187,1.5,2.7,80,0.00,,-RA,0.00,VWS V14.01,2013-01-11 23:06:00,
2013-01-11 18:11:00,40.3,34.7,30.27,SSE,155,1.5,3.1,80,0.00,,-RA,0.00,VWS V14.01,2013-01-11 23:11:00,
2013-01-11 18:17:00,40.2,34.9,30.27,SE,124,1.5,1.5,81,0.00,,-RA,0.00,VWS V14.01,2013-01-11 23:17:00,
2013-01-11 18:22:00,40.1,35.1,30.28,SW,217,1.5,1.5,82,0.00,,-RA,0.00,VWS V14.01,2013-01-11 23:22:00,
2013-01-11 18:28:00,40.1,35.5,30.28,SSE,159,1.5,3.2,83,0.00,,-RA,0.00,VWS V14.01,2013-01-11 23:28:00,
2013-01-11 18:34:00,40.2,35.9,30.28,SSE,159,1.5,1.5,84,0.00,,-RA,0.00,VWS V14.01,2013-01-11 23:34:00,
2013-01-11 18:39:00,40.0,36.0,30.27,SSE,159,1.5,1.5,85,0.00,,-RA,0.00,VWS V14.01,2013-01-11 23:39:00,
2013-01-11 18:45:00,39.9,36.2,30.27,SSE,159,1.5,1.5,86,0.00,,-RA,0.00,VWS V14.01,2013-01-11 23:45:00,
2013-01-11 18:50:00,40.0,36.5,30.28,SSE,159,1.5,1.5,87,0.00,,-RA,0.00,VWS V14.01,2013-01-11 23:50:00,
2013-01-11 18:55:00,39.9,36.5,30.28,SSE,159,1.5,1.5,88,0.00,,-RA,0.00,VWS V14.01,2013-01-11 23:55:00,
2013-01-11 19:00:00,39.9,36.6,30.28,SSE,159,1.5,1.5,88,0.00,,-RA,0.00,VWS V14.01,2013-01-12 00:00:00,
2013-01-11 19:05:00,39.8,36.6,30.27,ESE,122,1.5,1.5,88,0.00,,OVC090,0.00,VWS V14.01,2013-01-12 00:05:00,
2013-01-11 19:10:00,39.8,36.7,30.27,SE,145,1.5,1.5,88,0.00,,OVC090,0.00,VWS V14.01,2013-01-12 00:10:00,
2013-01-11 19:15:00,39.8,36.7,30.26,SE,145,1.5,1.5,89,0.00,,OVC090,0.00,VWS V14.01,2013-01-12 00:15:00,
2013-01-11 19:21:00,39.7,36.6,30.26,SE,145,1.5,2.6,88,0.00,,OVC090,0.00,VWS V14.01,2013-01-12 00:21:00,
2013-01-11 19:26:00,39.6,36.5,30.25,SSE,163,1.5,1.5,88,0.00,,OVC090,0.00,VWS V14.01,2013-01-12 00:26:00,
2013-01-11 19:31:00,39.6,36.4,30.25,South,184,3.8,3.8,88,0.00,,OVC090,0.00,VWS V14.01,2013-01-12 00:31:00,
2013-01-11 19:36:00,39.6,36.6,30.26,SSE,152,3.1,6.1,89,0.00,,OVC090,0.00,VWS V14.01,2013-01-12 00:36:00,
2013-01-11 19:41:00,39.5,36.4,30.25,WSW,246,2.6,3.3,89,0.00,,OVC090,0.00,VWS V14.01,2013-01-12 00:41:00,
2013-01-11 19:46:00,39.6,36.7,30.25,ESE,114,2.6,3.9,89,0.00,,OVC090,0.00,VWS V14.01,2013-01-12 00:46:00,
2013-01-11 19:51:00,39.7,36.7,30.25,South,186,2.2,3.8,89,0.00,,OVC090,0.00,VWS V14.01,2013-01-12 00:51:00,
2013-01-11 19:56:00,39.6,36.7,30.25,South,173,4.5,4.5,89,0.00,,OVC090,0.00,VWS V14.01,2013-01-12 00:56:00,
2013-01-11 20:02:00,39.7,36.7,30.24,SSE,160,1.5,1.5,89,0.00,,-RA,0.00,VWS V14.01,2013-01-12 01:02:00,
2013-01-11 20:08:00,39.8,37.0,30.24,ESE,114,2.7,7.4,90,0.00,,-RA,0.00,VWS V14.01,2013-01-12 01:08:00,
2013-01-11 20:13:00,39.6,36.9,30.24,SW,218,4.7,4.7,90,0.00,,-RA,0.00,VWS V14.01,2013-01-12 01:13:00,
2013-01-11 20:19:00,39.7,37.0,30.24,SE,124,2.4,2.8,90,0.00,,-RA,0.00,VWS V14.01,2013-01-12 01:19:00,
2013-01-11 20:25:00,39.7,36.9,30.24,WSW,249,2.7,3.6,90,0.00,,-RA,0.00,VWS V14.01,2013-01-12 01:25:00,
2013-01-11 20:31:00,39.8,37.0,30.24,South,177,1.5,1.5,90,0.00,,-RA,0.00,VWS V14.01,2013-01-12 01:31:00,
2013-01-11 20:36:00,39.9,37.2,30.24,West,262,3.4,4.9,90,0.00,,-RA,0.00,VWS V14.01,2013-01-12 01:36:00,
2013-01-11 20:42:00,39.8,37.2,30.24,SW,219,1.5,2.9,90,0.00,,-RA,0.00,VWS V14.01,2013-01-12 01:42:00,
2013-01-11 20:47:00,39.8,37.3,30.24,SSE,167,1.5,2.2,91,0.00,,-RA,0.00,VWS V14.01,2013-01-12 01:47:00,
2013-01-11 20:53:00,39.7,37.3,30.23,SSE,167,1.5,1.5,91,0.00,,-RA,0.00,VWS V14.01,2013-01-12 01:53:00,
2013-01-11 20:59:00,39.8,37.6,30.23,SSE,167,1.5,1.5,92,0.00,,-RA,0.00,VWS V14.01,2013-01-12 01:59:00,
2013-01-11 21:04:00,39.6,37.4,30.23,SSE,167,1.5,1.5,92,0.00,,-RA,0.00,VWS V14.01,2013-01-12 02:04:00,
2013-01-11 21:10:00,39.5,37.5,30.23,SSE,167,1.5,1.5,92,0.00,,-RA,0.00,VWS V14.01,2013-01-12 02:10:00,
2013-01-11 21:16:00,39.6,37.6,30.23,SE,143,1.5,3.8,93,0.00,,-RA,0.00,VWS V14.01,2013-01-12 02:16:00,
2013-01-11 21:21:00,39.3,37.4,30.23,South,187,1.5,5.3,93,0.00,,-RA,0.00,VWS V14.01,2013-01-12 02:21:00,
2013-01-11 21:27:00,39.1,37.2,30.23,ESE,118,1.5,1.5,93,0.00,,-RA,0.00,VWS V14.01,2013-01-12 02:27:00,
2013-01-11 21:33:00,39.1,37.3,30.22,SE,132,1.5,3.4,93,0.00,,-RA,0.00,VWS V14.01,2013-01-12 02:33:00,
2013-01-11 21:38:00,39.1,37.4,30.22,SSE,156,1.5,1.5,93,0.00,,-RA,0.00,VWS V14.01,2013-01-12 02:38:00,
2013-01-11 21:44:00,39.1,37.4,30.22,South,172,1.5,3.5,94,0.00,,-RA,0.00,VWS V14.01,2013-01-12 02:44:00,
2013-01-11 21:49:00,39.1,37.5,30.22,SW,233,1.5,1.5,94,0.00,,-RA,0.00,VWS V14.01,2013-01-12 02:49:00,
2013-01-11 21:55:00,39.2,37.7,30.23,SW,233,1.5,1.5,94,0.00,,-RA,0.00,VWS V14.01,2013-01-12 02:55:00,
2013-01-11 22:01:00,39.2,37.7,30.22,South,187,1.5,1.5,94,0.00,,-RA,0.00,VWS V14.01,2013-01-12 03:01:00,
2013-01-11 22:06:00,39.1,37.6,30.22,SSE,163,1.5,2.2,94,0.00,,-RA,0.00,VWS V14.01,2013-01-12 03:06:00,
2013-01-11 22:11:00,39.0,37.6,30.22,SSE,159,2.2,2.3,94,0.00,,-RA,0.00,VWS V14.01,2013-01-12 03:11:00,
2013-01-11 22:16:00,39.1,37.7,30.22,South,191,3.6,6.0,95,0.00,,-RA,0.00,VWS V14.01,2013-01-12 03:16:00,
2013-01-11 22:22:00,39.2,37.8,30.22,ESE,112,2.6,5.2,95,0.00,,-RA,0.00,VWS V14.01,2013-01-12 03:22:00,
2013-01-11 22:27:00,39.1,37.8,30.22,SE,145,1.5,1.5,95,0.00,,-RA,0.00,VWS V14.01,2013-01-12 03:27:00,
2013-01-11 22:33:00,39.1,37.8,30.22,ESE,110,1.5,3.2,95,0.00,,-RA,0.00,VWS V14.01,2013-01-12 03:33:00,
2013-01-11 22:38:00,39.2,38.0,30.22,SSE,155,2.1,3.4,95,0.00,,-RA,0.00,VWS V14.01,2013-01-12 03:38:00,
2013-01-11 22:44:00,39.1,37.9,30.21,SSE,156,2.6,5.0,95,0.00,,-RA,0.00,VWS V14.01,2013-01-12 03:44:00,
2013-01-11 22:50:00,39.2,38.0,30.21,SSE,155,4.4,6.3,96,0.00,,-RA,0.00,VWS V14.01,2013-01-12 03:50:00,
2013-01-11 22:56:00,39.1,38.0,30.20,SSW,205,2.8,6.9,96,0.00,,-RA,0.00,VWS V14.01,2013-01-12 03:56:00,
2013-01-11 23:01:00,39.0,37.9,30.20,SSW,198,4.7,5.5,96,0.00,,OVC044,0.00,VWS V14.01,2013-01-12 04:01:00,
2013-01-11 23:07:00,39.1,38.1,30.20,SE,139,1.5,8.0,96,0.00,,OVC044,0.00,VWS V14.01,2013-01-12 04:07:00,
2013-01-11 23:13:00,39.2,38.2,30.19,South,173,3.4,4.3,96,0.00,,OVC044,0.00,VWS V14.01,2013-01-12 04:13:00,
2013-01-11 23:18:00,39.2,38.2,30.20,South,173,3.1,6.6,96,0.00,,OVC044,0.00,VWS V14.01,2013-01-12 04:18:00,
2013-01-11 23:23:00,39.3,38.3,30.19,West,278,7.3,7.3,96,0.00,,OVC044,0.00,VWS V14.01,2013-01-12 04:23:00,
2013-01-11 23:28:00,39.4,38.4,30.20,East,86,1.5,3.0,96,0.00,,OVC044,0.00,VWS V14.01,2013-01-12 04:28:00,
2013-01-11 23:33:00,39.4,38.4,30.20,SE,135,2.8,5.2,96,0.00,,-RA,0.00,VWS V14.01,2013-01-12 04:33:00,
2013-01-11 23:39:00,39.4,38.4,30.20,SSW,198,2.2,6.7,96,0.00,,-RA,0.00,VWS V14.01,2013-01-12 04:39:00,
2013-01-11 23:45:00,39.5,38.5,30.20,SE,141,1.5,1.5,96,0.00,,-RA,0.00,VWS V14.01,2013-01-12 04:45:00,
2013-01-11 23:50:00,39.5,38.5,30.20,SSW,194,1.5,1.5,96,0.00,,-RA,0.00,VWS V14.01,2013-01-12 04:50:00,
2013-01-11 23:56:00,39.5,38.5,30.20,South,174,1.5,1.5,96,0.00,,-RA,0.00,VWS V14.01,2013-01-12 04:56:00,